Accueil
METAR-TAF:

METAR-TAF

Aéroports :

Tachkent, Ouzbékistan

Aéroport international de Tachkent

latitude: 41-16N, longitude: 069-16E, altitude: 489 m

Observation

Le bulletin a été fait il y a 17 minutes, à 08:30 UTC
Vent 10 kt de ouest/nord-ouest, variant entre ouest et nord-ouest
Température 37°C
Humidité 21%
Pression 1004 hPa
Visibilité 10 km ou plus
pas de nuages en-dessous de 1500 mètres et pas de cumulonimbus.

METAR: UTTT 240830Z 29010KT 260V320 CAVOK 37/11 Q1004 R08R/CLRD70 NOSIG

Heure: 13:47 (08:47 UTC)

Prévision

Le bulletin a été fait il y a 3 heures et 47 minutes, à 05:00 UTC
Prévision valable du 24 à 06 UTC au 25 à 06 UTC
Vent 10 kt de sud-ouest
Visibilité 10 km ou plus
pas de nuages en-dessous de 1500 mètres et pas de cumulonimbus.

TAF: UTTT 240500Z 2406/2506 22010KT CAVOK TX39/2410Z

Observations et prévisions météorologiques de plus de 4000 aéroports (messages METAR et TAF).

Les stations disponibles sont représentées par des disques jaunes et rouges sur la carte.

Passer la souris dessus pour voir le nom de la station.

Cliquer dessus pour voir les observations et prévisions météorologiques.

Pour changer de carte: cliquez sur les boutons verts avec une croix noire pour zoomer, sur le bouton vert avec un tiret pour effectuer un zoom arrière, ou sur les flèches vertes pour les cartes adjacentes.


METAR-TAF: